sensor_id;sensor_type;location;lat;lon;timestamp;P1;durP1;ratioP1;P2;durP2;ratioP2
78209;SDS011;67485;48.816;9.930;2023-09-12T00:00:35;10.23;;;4.33;;
78209;SDS011;67485;48.816;9.930;2023-09-12T00:03:01;10.88;;;4.30;;
78209;SDS011;67485;48.816;9.930;2023-09-12T00:05:27;9.03;;;4.10;;
78209;SDS011;67485;48.816;9.930;2023-09-12T00:07:52;10.85;;;4.45;;
78209;SDS011;67485;48.816;9.930;2023-09-12T00:10:20;9.33;;;4.07;;
78209;SDS011;67485;48.816;9.930;2023-09-12T00:12:46;17.23;;;5.18;;
78209;SDS011;67485;48.816;9.930;2023-09-12T00:15:12;11.60;;;4.97;;
78209;SDS011;67485;48.816;9.930;2023-09-12T00:17:38;11.67;;;5.00;;
78209;SDS011;67485;48.816;9.930;2023-09-12T00:20:03;14.13;;;5.10;;
78209;SDS011;67485;48.816;9.930;2023-09-12T00:22:31;7.85;;;4.13;;
78209;SDS011;67485;48.816;9.930;2023-09-12T00:24:57;10.60;;;4.45;;
78209;SDS011;67485;48.816;9.930;2023-09-12T00:27:23;11.23;;;4.93;;
78209;SDS011;67485;48.816;9.930;2023-09-12T00:29:48;14.00;;;5.20;;
78209;SDS011;67485;48.816;9.930;2023-09-12T00:32:14;16.33;;;5.00;;
78209;SDS011;67485;48.816;9.930;2023-09-12T00:34:39;12.53;;;4.93;;
78209;SDS011;67485;48.816;9.930;2023-09-12T00:37:05;15.30;;;4.95;;
78209;SDS011;67485;48.816;9.930;2023-09-12T00:39:31;13.27;;;4.63;;
78209;SDS011;67485;48.816;9.930;2023-09-12T00:41:56;11.25;;;4.32;;
78209;SDS011;67485;48.816;9.930;2023-09-12T00:44:22;14.23;;;4.83;;
78209;SDS011;67485;48.816;9.930;2023-09-12T00:46:48;10.93;;;4.67;;
78209;SDS011;67485;48.816;9.930;2023-09-12T00:49:15;14.70;;;5.50;;
78209;SDS011;67485;48.816;9.930;2023-09-12T00:51:42;10.45;;;5.07;;
78209;SDS011;67485;48.816;9.930;2023-09-12T00:54:10;13.13;;;4.70;;
78209;SDS011;67485;48.816;9.930;2023-09-12T00:56:36;12.07;;;4.90;;
78209;SDS011;67485;48.816;9.930;2023-09-12T00:59:02;14.23;;;5.27;;
78209;SDS011;67485;48.816;9.930;2023-09-12T01:01:29;13.52;;;4.72;;
78209;SDS011;67485;48.816;9.930;2023-09-12T01:03:57;16.98;;;5.00;;
78209;SDS011;67485;48.816;9.930;2023-09-12T01:06:23;13.13;;;4.50;;
78209;SDS011;67485;48.816;9.930;2023-09-12T01:08:53;13.82;;;4.82;;
78209;SDS011;67485;48.816;9.930;2023-09-12T01:11:19;14.68;;;4.82;;
78209;SDS011;67485;48.816;9.930;2023-09-12T01:13:45;10.68;;;4.20;;
78209;SDS011;67485;48.816;9.930;2023-09-12T01:16:11;10.73;;;4.60;;
78209;SDS011;67485;48.816;9.930;2023-09-12T01:18:37;12.05;;;4.95;;
78209;SDS011;67485;48.816;9.930;2023-09-12T01:23:47;11.40;;;4.47;;
78209;SDS011;67485;48.816;9.930;2023-09-12T01:29:06;15.32;;;3.97;;
78209;SDS011;67485;48.816;9.930;2023-09-12T01:31:34;11.32;;;4.00;;
78209;SDS011;67485;48.816;9.930;2023-09-12T01:34:09;10.45;;;3.85;;
78209;SDS011;67485;48.816;9.930;2023-09-12T01:36:36;10.13;;;3.93;;
78209;SDS011;67485;48.816;9.930;2023-09-12T01:39:02;10.85;;;3.95;;
78209;SDS011;67485;48.816;9.930;2023-09-12T01:41:28;12.48;;;4.55;;
78209;SDS011;67485;48.816;9.930;2023-09-12T01:43:57;9.98;;;3.97;;
78209;SDS011;67485;48.816;9.930;2023-09-12T01:46:25;9.88;;;4.10;;
78209;SDS011;67485;48.816;9.930;2023-09-12T01:49:16;9.83;;;3.83;;
78209;SDS011;67485;48.816;9.930;2023-09-12T01:51:46;11.15;;;3.83;;
78209;SDS011;67485;48.816;9.930;2023-09-12T01:54:12;11.90;;;4.15;;
78209;SDS011;67485;48.816;9.930;2023-09-12T01:56:40;9.35;;;4.50;;
78209;SDS011;67485;48.816;9.930;2023-09-12T01:59:06;8.98;;;4.63;;
78209;SDS011;67485;48.816;9.930;2023-09-12T02:01:32;9.07;;;4.63;;
78209;SDS011;67485;48.816;9.930;2023-09-12T02:03:58;8.65;;;4.13;;
78209;SDS011;67485;48.816;9.930;2023-09-12T02:06:23;11.30;;;4.83;;
78209;SDS011;67485;48.816;9.930;2023-09-12T02:08:49;10.38;;;4.97;;
78209;SDS011;67485;48.816;9.930;2023-09-12T02:11:15;12.17;;;4.70;;
78209;SDS011;67485;48.816;9.930;2023-09-12T02:13:40;13.43;;;5.10;;
78209;SDS011;67485;48.816;9.930;2023-09-12T02:16:06;12.57;;;4.97;;
78209;SDS011;67485;48.816;9.930;2023-09-12T02:18:32;11.40;;;4.40;;
78209;SDS011;67485;48.816;9.930;2023-09-12T02:20:59;8.90;;;4.40;;
78209;SDS011;67485;48.816;9.930;2023-09-12T02:23:24;9.37;;;4.10;;
78209;SDS011;67485;48.816;9.930;2023-09-12T02:25:50;13.77;;;4.60;;
78209;SDS011;67485;48.816;9.930;2023-09-12T02:28:16;9.43;;;3.93;;
78209;SDS011;67485;48.816;9.930;2023-09-12T02:30:41;10.73;;;4.25;;
78209;SDS011;67485;48.816;9.930;2023-09-12T02:33:07;10.97;;;5.03;;
78209;SDS011;67485;48.816;9.930;2023-09-12T02:35:32;10.43;;;4.20;;
78209;SDS011;67485;48.816;9.930;2023-09-12T02:37:58;8.60;;;4.30;;
78209;SDS011;67485;48.816;9.930;2023-09-12T02:40:24;9.20;;;4.23;;
78209;SDS011;67485;48.816;9.930;2023-09-12T02:42:50;9.75;;;5.47;;
78209;SDS011;67485;48.816;9.930;2023-09-12T02:45:15;14.05;;;4.82;;
78209;SDS011;67485;48.816;9.930;2023-09-12T02:47:41;12.67;;;4.83;;
78209;SDS011;67485;48.816;9.930;2023-09-12T02:50:08;10.65;;;4.85;;
78209;SDS011;67485;48.816;9.930;2023-09-12T02:52:35;10.13;;;4.55;;
78209;SDS011;67485;48.816;9.930;2023-09-12T02:55:00;16.30;;;4.47;;
78209;SDS011;67485;48.816;9.930;2023-09-12T02:57:26;12.07;;;4.70;;
78209;SDS011;67485;48.816;9.930;2023-09-12T02:59:52;11.77;;;5.03;;
78209;SDS011;67485;48.816;9.930;2023-09-12T03:02:17;10.00;;;4.70;;
78209;SDS011;67485;48.816;9.930;2023-09-12T03:04:43;13.17;;;5.13;;
78209;SDS011;67485;48.816;9.930;2023-09-12T03:07:08;15.38;;;4.78;;
78209;SDS011;67485;48.816;9.930;2023-09-12T03:09:34;10.37;;;4.37;;
78209;SDS011;67485;48.816;9.930;2023-09-12T03:12:03;15.13;;;5.05;;
78209;SDS011;67485;48.816;9.930;2023-09-12T03:14:30;11.40;;;4.10;;
78209;SDS011;67485;48.816;9.930;2023-09-12T03:16:56;12.33;;;4.60;;
78209;SDS011;67485;48.816;9.930;2023-09-12T03:19:21;11.50;;;4.57;;
78209;SDS011;67485;48.816;9.930;2023-09-12T03:21:47;11.50;;;4.30;;
78209;SDS011;67485;48.816;9.930;2023-09-12T03:24:13;14.15;;;5.03;;
78209;SDS011;67485;48.816;9.930;2023-09-12T03:26:39;15.27;;;4.87;;
78209;SDS011;67485;48.816;9.930;2023-09-12T03:29:04;10.55;;;4.43;;
78209;SDS011;67485;48.816;9.930;2023-09-12T03:31:31;12.80;;;4.78;;
78209;SDS011;67485;48.816;9.930;2023-09-12T03:33:56;11.67;;;4.80;;
78209;SDS011;67485;48.816;9.930;2023-09-12T03:36:22;12.35;;;4.78;;
78209;SDS011;67485;48.816;9.930;2023-09-12T03:38:48;16.63;;;5.33;;
78209;SDS011;67485;48.816;9.930;2023-09-12T03:41:14;12.68;;;5.20;;
78209;SDS011;67485;48.816;9.930;2023-09-12T03:43:39;11.43;;;5.00;;
78209;SDS011;67485;48.816;9.930;2023-09-12T03:46:05;10.88;;;5.22;;
78209;SDS011;67485;48.816;9.930;2023-09-12T03:48:31;15.02;;;4.70;;
78209;SDS011;67485;48.816;9.930;2023-09-12T03:50:57;7.60;;;4.17;;
78209;SDS011;67485;48.816;9.930;2023-09-12T03:53:23;8.90;;;4.80;;
78209;SDS011;67485;48.816;9.930;2023-09-12T03:55:49;11.13;;;4.47;;
78209;SDS011;67485;48.816;9.930;2023-09-12T03:58:14;10.33;;;4.17;;
78209;SDS011;67485;48.816;9.930;2023-09-12T04:00:40;11.55;;;4.22;;
78209;SDS011;67485;48.816;9.930;2023-09-12T04:03:06;11.20;;;4.57;;
78209;SDS011;67485;48.816;9.930;2023-09-12T04:05:31;9.27;;;4.05;;
78209;SDS011;67485;48.816;9.930;2023-09-12T04:07:57;11.47;;;4.93;;
78209;SDS011;67485;48.816;9.930;2023-09-12T04:10:23;9.93;;;4.50;;
78209;SDS011;67485;48.816;9.930;2023-09-12T04:12:48;9.03;;;4.60;;
78209;SDS011;67485;48.816;9.930;2023-09-12T04:15:14;11.73;;;4.50;;
78209;SDS011;67485;48.816;9.930;2023-09-12T04:17:40;14.73;;;4.97;;
78209;SDS011;67485;48.816;9.930;2023-09-12T04:20:06;14.55;;;5.55;;
78209;SDS011;67485;48.816;9.930;2023-09-12T04:22:32;10.53;;;4.50;;
78209;SDS011;67485;48.816;9.930;2023-09-12T04:24:58;12.10;;;4.88;;
78209;SDS011;67485;48.816;9.930;2023-09-12T04:27:24;10.85;;;5.10;;
78209;SDS011;67485;48.816;9.930;2023-09-12T04:29:51;12.85;;;4.72;;
78209;SDS011;67485;48.816;9.930;2023-09-12T04:32:16;10.37;;;5.37;;
78209;SDS011;67485;48.816;9.930;2023-09-12T04:34:51;11.95;;;4.57;;
78209;SDS011;67485;48.816;9.930;2023-09-12T04:37:17;10.43;;;5.07;;
78209;SDS011;67485;48.816;9.930;2023-09-12T04:39:43;14.33;;;4.67;;
78209;SDS011;67485;48.816;9.930;2023-09-12T04:42:10;9.65;;;4.45;;
78209;SDS011;67485;48.816;9.930;2023-09-12T04:44:36;8.95;;;4.35;;
78209;SDS011;67485;48.816;9.930;2023-09-12T04:47:02;10.25;;;4.97;;
78209;SDS011;67485;48.816;9.930;2023-09-12T04:49:28;11.63;;;4.67;;
78209;SDS011;67485;48.816;9.930;2023-09-12T04:51:54;11.68;;;5.18;;
78209;SDS011;67485;48.816;9.930;2023-09-12T04:54:20;8.87;;;4.70;;
78209;SDS011;67485;48.816;9.930;2023-09-12T04:56:45;12.38;;;4.75;;
78209;SDS011;67485;48.816;9.930;2023-09-12T04:59:11;8.60;;;4.87;;
78209;SDS011;67485;48.816;9.930;2023-09-12T05:01:36;10.10;;;4.20;;
78209;SDS011;67485;48.816;9.930;2023-09-12T05:04:02;10.17;;;4.30;;
78209;SDS011;67485;48.816;9.930;2023-09-12T05:06:29;11.23;;;4.70;;
78209;SDS011;67485;48.816;9.930;2023-09-12T05:08:55;10.53;;;4.77;;
78209;SDS011;67485;48.816;9.930;2023-09-12T05:11:23;10.02;;;4.82;;
78209;SDS011;67485;48.816;9.930;2023-09-12T05:13:50;9.90;;;4.47;;
78209;SDS011;67485;48.816;9.930;2023-09-12T05:16:16;11.43;;;4.10;;
78209;SDS011;67485;48.816;9.930;2023-09-12T05:18:42;7.70;;;4.23;;
78209;SDS011;67485;48.816;9.930;2023-09-12T05:21:07;10.30;;;4.50;;
78209;SDS011;67485;48.816;9.930;2023-09-12T05:23:33;8.70;;;4.30;;
78209;SDS011;67485;48.816;9.930;2023-09-12T05:25:59;6.38;;;4.05;;
78209;SDS011;67485;48.816;9.930;2023-09-12T05:28:25;10.45;;;4.60;;
78209;SDS011;67485;48.816;9.930;2023-09-12T05:30:52;13.20;;;4.65;;
78209;SDS011;67485;48.816;9.930;2023-09-12T05:33:18;12.20;;;4.00;;
78209;SDS011;67485;48.816;9.930;2023-09-12T05:35:44;8.05;;;4.68;;
78209;SDS011;67485;48.816;9.930;2023-09-12T05:38:10;10.63;;;5.38;;
78209;SDS011;67485;48.816;9.930;2023-09-12T05:40:36;11.03;;;4.77;;
78209;SDS011;67485;48.816;9.930;2023-09-12T05:43:02;9.90;;;4.78;;
78209;SDS011;67485;48.816;9.930;2023-09-12T05:45:28;12.05;;;4.85;;
78209;SDS011;67485;48.816;9.930;2023-09-12T05:47:56;13.30;;;5.77;;
78209;SDS011;67485;48.816;9.930;2023-09-12T05:50:22;13.52;;;5.40;;
78209;SDS011;67485;48.816;9.930;2023-09-12T05:52:49;13.63;;;5.05;;
78209;SDS011;67485;48.816;9.930;2023-09-12T05:55:15;10.57;;;4.88;;
78209;SDS011;67485;48.816;9.930;2023-09-12T05:57:41;12.77;;;4.27;;
78209;SDS011;67485;48.816;9.930;2023-09-12T06:00:07;12.00;;;4.72;;
78209;SDS011;67485;48.816;9.930;2023-09-12T06:02:41;9.70;;;4.85;;
78209;SDS011;67485;48.816;9.930;2023-09-12T06:05:07;10.57;;;4.53;;
78209;SDS011;67485;48.816;9.930;2023-09-12T06:07:33;16.73;;;4.65;;
78209;SDS011;67485;48.816;9.930;2023-09-12T06:10:00;13.52;;;4.90;;
78209;SDS011;67485;48.816;9.930;2023-09-12T06:12:26;12.98;;;4.90;;
78209;SDS011;67485;48.816;9.930;2023-09-12T06:14:51;10.80;;;5.00;;
78209;SDS011;67485;48.816;9.930;2023-09-12T06:17:19;12.65;;;5.18;;
78209;SDS011;67485;48.816;9.930;2023-09-12T06:19:45;9.67;;;4.03;;
78209;SDS011;67485;48.816;9.930;2023-09-12T06:22:10;9.32;;;4.38;;
78209;SDS011;67485;48.816;9.930;2023-09-12T06:24:36;14.47;;;4.77;;
78209;SDS011;67485;48.816;9.930;2023-09-12T06:27:04;12.23;;;4.97;;
78209;SDS011;67485;48.816;9.930;2023-09-12T06:29:30;10.73;;;4.40;;
78209;SDS011;67485;48.816;9.930;2023-09-12T06:31:55;10.85;;;4.72;;
78209;SDS011;67485;48.816;9.930;2023-09-12T06:34:21;13.83;;;4.07;;
78209;SDS011;67485;48.816;9.930;2023-09-12T06:36:47;7.10;;;3.97;;
78209;SDS011;67485;48.816;9.930;2023-09-12T06:39:13;8.82;;;4.10;;
78209;SDS011;67485;48.816;9.930;2023-09-12T07:06:05;9.27;;;5.03;;
78209;SDS011;67485;48.816;9.930;2023-09-12T07:08:31;13.17;;;5.27;;
78209;SDS011;67485;48.816;9.930;2023-09-12T07:10:58;17.87;;;6.10;;
78209;SDS011;67485;48.816;9.930;2023-09-12T07:13:30;9.52;;;4.75;;
78209;SDS011;67485;48.816;9.930;2023-09-12T07:15:56;9.77;;;5.50;;
78209;SDS011;67485;48.816;9.930;2023-09-12T07:18:22;13.48;;;5.53;;
78209;SDS011;67485;48.816;9.930;2023-09-12T07:20:56;9.23;;;4.90;;
78209;SDS011;67485;48.816;9.930;2023-09-12T07:23:26;12.27;;;5.50;;
78209;SDS011;67485;48.816;9.930;2023-09-12T07:25:51;11.25;;;5.40;;
78209;SDS011;67485;48.816;9.930;2023-09-12T07:28:18;10.75;;;5.70;;
78209;SDS011;67485;48.816;9.930;2023-09-12T07:30:47;11.30;;;5.27;;
78209;SDS011;67485;48.816;9.930;2023-09-12T07:34:47;11.97;;;5.37;;
78209;SDS011;67485;48.816;9.930;2023-09-12T07:37:14;10.82;;;5.60;;
78209;SDS011;67485;48.816;9.930;2023-09-12T07:39:39;11.55;;;5.40;;
78209;SDS011;67485;48.816;9.930;2023-09-12T07:42:05;14.83;;;5.40;;
78209;SDS011;67485;48.816;9.930;2023-09-12T07:44:31;10.63;;;5.70;;
78209;SDS011;67485;48.816;9.930;2023-09-12T07:46:57;12.07;;;4.60;;
78209;SDS011;67485;48.816;9.930;2023-09-12T07:49:22;10.33;;;4.80;;
78209;SDS011;67485;48.816;9.930;2023-09-12T07:51:51;10.65;;;5.30;;
78209;SDS011;67485;48.816;9.930;2023-09-12T07:54:17;10.77;;;5.53;;
78209;SDS011;67485;48.816;9.930;2023-09-12T07:56:43;8.07;;;4.90;;
78209;SDS011;67485;48.816;9.930;2023-09-12T07:59:09;11.57;;;5.18;;
78209;SDS011;67485;48.816;9.930;2023-09-12T08:01:36;9.93;;;4.80;;
78209;SDS011;67485;48.816;9.930;2023-09-12T08:04:01;9.97;;;5.13;;
78209;SDS011;67485;48.816;9.930;2023-09-12T08:06:28;9.13;;;4.90;;
78209;SDS011;67485;48.816;9.930;2023-09-12T08:08:53;11.10;;;4.95;;
78209;SDS011;67485;48.816;9.930;2023-09-12T08:11:19;10.70;;;5.33;;
78209;SDS011;67485;48.816;9.930;2023-09-12T08:13:47;10.60;;;5.00;;
78209;SDS011;67485;48.816;9.930;2023-09-12T08:16:14;8.25;;;4.63;;
78209;SDS011;67485;48.816;9.930;2023-09-12T08:18:39;11.57;;;5.43;;
78209;SDS011;67485;48.816;9.930;2023-09-12T08:21:05;8.57;;;5.27;;
78209;SDS011;67485;48.816;9.930;2023-09-12T08:23:31;12.23;;;5.40;;
78209;SDS011;67485;48.816;9.930;2023-09-12T08:25:56;9.15;;;5.07;;
78209;SDS011;67485;48.816;9.930;2023-09-12T08:28:22;12.13;;;5.40;;
78209;SDS011;67485;48.816;9.930;2023-09-12T08:30:48;10.97;;;6.33;;
78209;SDS011;67485;48.816;9.930;2023-09-12T08:33:13;10.43;;;5.63;;
78209;SDS011;67485;48.816;9.930;2023-09-12T08:35:39;7.38;;;5.20;;
78209;SDS011;67485;48.816;9.930;2023-09-12T08:38:05;7.83;;;5.20;;
78209;SDS011;67485;48.816;9.930;2023-09-12T08:40:32;8.65;;;5.40;;
78209;SDS011;67485;48.816;9.930;2023-09-12T08:42:58;14.00;;;5.18;;
78209;SDS011;67485;48.816;9.930;2023-09-12T08:45:24;10.43;;;6.07;;
78209;SDS011;67485;48.816;9.930;2023-09-12T08:47:51;9.13;;;5.60;;
78209;SDS011;67485;48.816;9.930;2023-09-12T08:50:18;13.73;;;5.35;;
78209;SDS011;67485;48.816;9.930;2023-09-12T08:52:46;11.57;;;4.97;;
78209;SDS011;67485;48.816;9.930;2023-09-12T08:55:12;9.32;;;5.30;;
78209;SDS011;67485;48.816;9.930;2023-09-12T08:57:41;11.60;;;5.93;;
78209;SDS011;67485;48.816;9.930;2023-09-12T09:00:07;13.93;;;5.68;;
78209;SDS011;67485;48.816;9.930;2023-09-12T09:02:35;9.57;;;5.38;;
78209;SDS011;67485;48.816;9.930;2023-09-12T09:05:03;11.32;;;5.68;;
78209;SDS011;67485;48.816;9.930;2023-09-12T09:07:33;9.47;;;5.43;;
78209;SDS011;67485;48.816;9.930;2023-09-12T09:10:02;8.55;;;5.30;;
78209;SDS011;67485;48.816;9.930;2023-09-12T09:12:30;9.80;;;5.65;;
78209;SDS011;67485;48.816;9.930;2023-09-12T09:14:56;13.18;;;5.32;;
78209;SDS011;67485;48.816;9.930;2023-09-12T09:17:22;11.10;;;5.43;;
78209;SDS011;67485;48.816;9.930;2023-09-12T09:19:48;11.80;;;5.82;;
78209;SDS011;67485;48.816;9.930;2023-09-12T09:22:14;14.40;;;5.53;;
78209;SDS011;67485;48.816;9.930;2023-09-12T09:24:40;11.77;;;5.63;;
78209;SDS011;67485;48.816;9.930;2023-09-12T09:27:05;8.33;;;5.33;;
78209;SDS011;67485;48.816;9.930;2023-09-12T09:29:31;13.60;;;5.57;;
78209;SDS011;67485;48.816;9.930;2023-09-12T09:31:59;11.98;;;6.18;;
78209;SDS011;67485;48.816;9.930;2023-09-12T09:34:30;9.30;;;5.20;;
78209;SDS011;67485;48.816;9.930;2023-09-12T09:36:57;10.30;;;5.78;;
78209;SDS011;67485;48.816;9.930;2023-09-12T09:39:27;14.75;;;6.05;;
78209;SDS011;67485;48.816;9.930;2023-09-12T09:41:57;8.75;;;5.63;;
78209;SDS011;67485;48.816;9.930;2023-09-12T09:44:23;10.68;;;5.13;;
78209;SDS011;67485;48.816;9.930;2023-09-12T09:46:55;11.87;;;5.20;;
78209;SDS011;67485;48.816;9.930;2023-09-12T09:49:25;10.13;;;5.00;;
78209;SDS011;67485;48.816;9.930;2023-09-12T09:51:51;10.43;;;6.10;;
78209;SDS011;67485;48.816;9.930;2023-09-12T09:54:20;11.87;;;6.10;;
78209;SDS011;67485;48.816;9.930;2023-09-12T09:56:50;9.75;;;5.28;;
78209;SDS011;67485;48.816;9.930;2023-09-12T09:59:19;9.05;;;5.63;;
78209;SDS011;67485;48.816;9.930;2023-09-12T10:01:48;9.32;;;5.65;;
78209;SDS011;67485;48.816;9.930;2023-09-12T10:04:16;10.93;;;6.15;;
78209;SDS011;67485;48.816;9.930;2023-09-12T10:06:43;13.20;;;5.97;;
78209;SDS011;67485;48.816;9.930;2023-09-12T10:09:11;9.77;;;5.30;;
78209;SDS011;67485;48.816;9.930;2023-09-12T10:11:39;10.93;;;5.75;;
78209;SDS011;67485;48.816;9.930;2023-09-12T10:14:06;8.60;;;5.05;;
78209;SDS011;67485;48.816;9.930;2023-09-12T10:16:33;8.13;;;5.45;;
78209;SDS011;67485;48.816;9.930;2023-09-12T10:21:57;9.05;;;5.40;;
78209;SDS011;67485;48.816;9.930;2023-09-12T10:24:25;7.55;;;5.75;;
78209;SDS011;67485;48.816;9.930;2023-09-12T10:26:52;9.82;;;6.10;;
78209;SDS011;67485;48.816;9.930;2023-09-12T10:29:20;10.75;;;5.70;;
78209;SDS011;67485;48.816;9.930;2023-09-12T10:31:48;7.53;;;5.90;;
78209;SDS011;67485;48.816;9.930;2023-09-12T10:34:14;6.90;;;5.18;;
78209;SDS011;67485;48.816;9.930;2023-09-12T10:36:42;10.80;;;6.15;;
78209;SDS011;67485;48.816;9.930;2023-09-12T10:39:09;10.05;;;6.05;;
78209;SDS011;67485;48.816;9.930;2023-09-12T10:41:37;8.93;;;6.18;;
78209;SDS011;67485;48.816;9.930;2023-09-12T10:44:06;9.97;;;5.37;;
78209;SDS011;67485;48.816;9.930;2023-09-12T10:46:44;8.25;;;5.97;;
78209;SDS011;67485;48.816;9.930;2023-09-12T10:49:14;9.30;;;5.95;;
78209;SDS011;67485;48.816;9.930;2023-09-12T10:51:41;8.48;;;5.53;;
78209;SDS011;67485;48.816;9.930;2023-09-12T10:54:09;7.18;;;5.72;;
78209;SDS011;67485;48.816;9.930;2023-09-12T10:56:39;7.43;;;6.20;;
78209;SDS011;67485;48.816;9.930;2023-09-12T11:01:32;8.13;;;6.45;;
78209;SDS011;67485;48.816;9.930;2023-09-12T11:04:05;6.72;;;5.47;;
78209;SDS011;67485;48.816;9.930;2023-09-12T11:06:45;8.73;;;6.07;;
78209;SDS011;67485;48.816;9.930;2023-09-12T11:11:41;6.07;;;5.03;;
78209;SDS011;67485;48.816;9.930;2023-09-12T11:14:08;11.10;;;6.55;;
78209;SDS011;67485;48.816;9.930;2023-09-12T11:16:33;10.25;;;6.75;;
78209;SDS011;67485;48.816;9.930;2023-09-12T11:21:45;8.85;;;6.20;;
78209;SDS011;67485;48.816;9.930;2023-09-12T11:24:13;8.65;;;5.40;;
78209;SDS011;67485;48.816;9.930;2023-09-12T11:26:59;9.93;;;5.20;;
78209;SDS011;67485;48.816;9.930;2023-09-12T11:29:26;7.07;;;5.47;;
78209;SDS011;67485;48.816;9.930;2023-09-12T11:31:55;6.80;;;5.87;;
78209;SDS011;67485;48.816;9.930;2023-09-12T11:34:26;7.28;;;5.40;;
78209;SDS011;67485;48.816;9.930;2023-09-12T11:36:56;8.23;;;5.85;;
78209;SDS011;67485;48.816;9.930;2023-09-12T11:39:25;9.48;;;5.35;;
78209;SDS011;67485;48.816;9.930;2023-09-12T11:41:53;9.45;;;5.75;;
78209;SDS011;67485;48.816;9.930;2023-09-12T11:44:21;8.70;;;5.43;;
78209;SDS011;67485;48.816;9.930;2023-09-12T11:46:48;7.55;;;5.20;;
78209;SDS011;67485;48.816;9.930;2023-09-12T11:49:15;8.77;;;5.00;;
78209;SDS011;67485;48.816;9.930;2023-09-12T11:51:50;7.85;;;5.65;;
78209;SDS011;67485;48.816;9.930;2023-09-12T11:54:17;8.73;;;4.73;;
78209;SDS011;67485;48.816;9.930;2023-09-12T11:56:46;7.75;;;5.03;;
78209;SDS011;67485;48.816;9.930;2023-09-12T11:59:13;8.70;;;5.55;;
78209;SDS011;67485;48.816;9.930;2023-09-12T12:01:39;10.18;;;5.82;;
78209;SDS011;67485;48.816;9.930;2023-09-12T12:04:05;8.50;;;5.47;;
78209;SDS011;67485;48.816;9.930;2023-09-12T12:06:32;8.57;;;5.43;;
78209;SDS011;67485;48.816;9.930;2023-09-12T12:08:58;9.43;;;4.88;;
78209;SDS011;67485;48.816;9.930;2023-09-12T12:11:27;11.65;;;6.20;;
78209;SDS011;67485;48.816;9.930;2023-09-12T12:13:53;10.45;;;5.53;;
78209;SDS011;67485;48.816;9.930;2023-09-12T12:16:19;7.00;;;4.70;;
78209;SDS011;67485;48.816;9.930;2023-09-12T12:18:44;15.43;;;5.00;;
78209;SDS011;67485;48.816;9.930;2023-09-12T12:21:10;9.87;;;4.93;;
78209;SDS011;67485;48.816;9.930;2023-09-12T12:23:36;13.65;;;4.88;;
78209;SDS011;67485;48.816;9.930;2023-09-12T12:26:08;9.93;;;5.20;;
78209;SDS011;67485;48.816;9.930;2023-09-12T12:28:35;8.20;;;4.53;;
78209;SDS011;67485;48.816;9.930;2023-09-12T12:31:01;6.35;;;4.47;;
78209;SDS011;67485;48.816;9.930;2023-09-12T12:33:27;8.23;;;5.30;;
78209;SDS011;67485;48.816;9.930;2023-09-12T12:36:02;8.47;;;4.57;;
78209;SDS011;67485;48.816;9.930;2023-09-12T12:38:36;8.20;;;5.10;;
78209;SDS011;67485;48.816;9.930;2023-09-12T12:41:03;7.88;;;5.28;;
78209;SDS011;67485;48.816;9.930;2023-09-12T12:43:29;7.93;;;5.17;;
78209;SDS011;67485;48.816;9.930;2023-09-12T12:45:56;6.97;;;4.53;;
78209;SDS011;67485;48.816;9.930;2023-09-12T12:48:30;7.10;;;4.85;;
78209;SDS011;67485;48.816;9.930;2023-09-12T12:50:56;12.15;;;4.93;;
78209;SDS011;67485;48.816;9.930;2023-09-12T12:53:38;8.93;;;4.67;;
78209;SDS011;67485;48.816;9.930;2023-09-12T12:56:05;7.25;;;5.13;;
78209;SDS011;67485;48.816;9.930;2023-09-12T12:58:31;8.40;;;5.13;;
78209;SDS011;67485;48.816;9.930;2023-09-12T13:00:57;8.63;;;4.90;;
78209;SDS011;67485;48.816;9.930;2023-09-12T13:03:22;8.93;;;4.90;;
78209;SDS011;67485;48.816;9.930;2023-09-12T13:05:48;6.25;;;4.63;;
78209;SDS011;67485;48.816;9.930;2023-09-12T13:08:13;7.67;;;4.67;;
78209;SDS011;67485;48.816;9.930;2023-09-12T13:10:39;6.88;;;4.70;;
78209;SDS011;67485;48.816;9.930;2023-09-12T13:13:07;8.90;;;4.85;;
78209;SDS011;67485;48.816;9.930;2023-09-12T13:15:33;8.93;;;4.33;;
78209;SDS011;67485;48.816;9.930;2023-09-12T13:17:59;8.27;;;4.75;;
78209;SDS011;67485;48.816;9.930;2023-09-12T13:20:24;7.37;;;4.40;;
78209;SDS011;67485;48.816;9.930;2023-09-12T13:22:50;7.85;;;4.55;;
78209;SDS011;67485;48.816;9.930;2023-09-12T13:25:16;7.20;;;4.53;;
78209;SDS011;67485;48.816;9.930;2023-09-12T13:27:41;7.07;;;4.97;;
78209;SDS011;67485;48.816;9.930;2023-09-12T13:30:07;10.60;;;4.88;;
78209;SDS011;67485;48.816;9.930;2023-09-12T13:32:33;7.22;;;4.95;;
78209;SDS011;67485;48.816;9.930;2023-09-12T13:34:58;6.97;;;3.80;;
78209;SDS011;67485;48.816;9.930;2023-09-12T13:37:24;6.63;;;4.30;;
78209;SDS011;67485;48.816;9.930;2023-09-12T13:39:52;6.07;;;4.30;;
78209;SDS011;67485;48.816;9.930;2023-09-12T13:42:19;8.55;;;4.63;;
78209;SDS011;67485;48.816;9.930;2023-09-12T13:44:49;7.07;;;4.70;;
78209;SDS011;67485;48.816;9.930;2023-09-12T13:47:15;8.85;;;4.70;;
78209;SDS011;67485;48.816;9.930;2023-09-12T13:49:47;8.38;;;4.72;;
78209;SDS011;67485;48.816;9.930;2023-09-12T13:52:17;6.67;;;4.37;;
78209;SDS011;67485;48.816;9.930;2023-09-12T13:54:42;8.02;;;5.05;;
78209;SDS011;67485;48.816;9.930;2023-09-12T13:57:08;8.20;;;4.67;;
78209;SDS011;67485;48.816;9.930;2023-09-12T13:59:34;7.60;;;4.97;;
78209;SDS011;67485;48.816;9.930;2023-09-12T14:01:59;7.17;;;4.87;;
78209;SDS011;67485;48.816;9.930;2023-09-12T14:04:25;7.70;;;4.40;;
78209;SDS011;67485;48.816;9.930;2023-09-12T14:06:50;9.23;;;4.77;;
78209;SDS011;67485;48.816;9.930;2023-09-12T14:09:16;7.10;;;4.25;;
78209;SDS011;67485;48.816;9.930;2023-09-12T14:11:42;8.00;;;4.57;;
78209;SDS011;67485;48.816;9.930;2023-09-12T14:14:08;7.47;;;4.47;;
78209;SDS011;67485;48.816;9.930;2023-09-12T14:16:34;8.37;;;4.30;;
78209;SDS011;67485;48.816;9.930;2023-09-12T14:18:59;7.20;;;5.03;;
78209;SDS011;67485;48.816;9.930;2023-09-12T14:21:25;5.27;;;4.60;;
78209;SDS011;67485;48.816;9.930;2023-09-12T14:23:51;10.73;;;5.00;;
78209;SDS011;67485;48.816;9.930;2023-09-12T14:26:16;6.80;;;3.90;;
78209;SDS011;67485;48.816;9.930;2023-09-12T14:28:42;7.77;;;4.07;;
78209;SDS011;67485;48.816;9.930;2023-09-12T14:31:07;6.35;;;4.00;;
78209;SDS011;67485;48.816;9.930;2023-09-12T14:33:39;6.07;;;4.25;;
78209;SDS011;67485;48.816;9.930;2023-09-12T14:36:05;6.27;;;4.27;;
78209;SDS011;67485;48.816;9.930;2023-09-12T14:38:32;8.57;;;4.28;;
78209;SDS011;67485;48.816;9.930;2023-09-12T14:40:58;6.03;;;3.83;;
78209;SDS011;67485;48.816;9.930;2023-09-12T14:43:24;7.97;;;4.20;;
78209;SDS011;67485;48.816;9.930;2023-09-12T14:45:49;12.35;;;4.80;;
78209;SDS011;67485;48.816;9.930;2023-09-12T14:48:15;7.20;;;4.40;;
78209;SDS011;67485;48.816;9.930;2023-09-12T14:50:40;10.90;;;4.43;;
78209;SDS011;67485;48.816;9.930;2023-09-12T14:53:06;5.83;;;4.30;;
78209;SDS011;67485;48.816;9.930;2023-09-12T14:55:32;10.43;;;4.43;;
78209;SDS011;67485;48.816;9.930;2023-09-12T14:57:57;7.60;;;4.65;;
78209;SDS011;67485;48.816;9.930;2023-09-12T15:00:24;7.72;;;4.35;;
78209;SDS011;67485;48.816;9.930;2023-09-12T15:02:50;5.93;;;4.35;;
78209;SDS011;67485;48.816;9.930;2023-09-12T15:05:15;7.40;;;4.63;;
78209;SDS011;67485;48.816;9.930;2023-09-12T15:07:42;10.07;;;5.17;;
78209;SDS011;67485;48.816;9.930;2023-09-12T15:10:08;6.88;;;4.57;;
78209;SDS011;67485;48.816;9.930;2023-09-12T15:12:34;7.45;;;4.60;;
78209;SDS011;67485;48.816;9.930;2023-09-12T15:14:59;10.10;;;3.80;;
78209;SDS011;67485;48.816;9.930;2023-09-12T15:17:25;9.50;;;4.60;;
78209;SDS011;67485;48.816;9.930;2023-09-12T15:19:51;9.07;;;4.77;;